Wolf 59 — CGBP — position and weather

sailwx.info

Track history (hours):
 
Tides and Currents Weather Stations Pressure Air Temp Water Temp Dewpoint Dewpoint Depression Visibility Wind Speed Wind Dir Waves Ship Positions

Wolf 59

Last reported at 2017-Feb-24 18:28 UTC. Time now 2017-Feb-26 07:41 UTC.
Position N 48°26' W 123°26'.

Length 33 m; draft 2 m.

Type: Military. MMSI: 316011515.

Date/timePositionNaut miles runAvg speedWind from/ knotsBaromVisibWave heightAir tempDewpointWater temp
2017-Feb-24 18:28N 48°26' W 123°26'0 0.1
2017-Feb-24 17:32N 48°26' W 123°26'0 0.0
2017-Feb-23 20:20N 48°26' W 123°26'1 1.1
2017-Feb-23 19:30N 48°26' W 123°27'0 0.0
2017-Feb-23 18:33N 48°26' W 123°27'1 0.0
2017-Feb-22 14:32N 48°26' W 123°26'0 0.0
2017-Feb-22 09:26N 48°26' W 123°26'0 0.0
2017-Feb-21 21:30N 48°26' W 123°26'0 0.0
2017-Feb-21 20:18N 48°26' W 123°26'0 0.0
2017-Feb-21 19:15N 48°26' W 123°26'0 0.0
2017-Feb-21 18:33N 48°26' W 123°26'0 0.0
2017-Feb-21 17:30N 48°26' W 123°26'0 0.0
2017-Feb-21 15:18N 48°26' W 123°26'0 0.0
2017-Feb-21 14:33N 48°26' W 123°26'0 0.0
2017-Feb-21 13:31N 48°26' W 123°26'0 0.0
2017-Feb-21 11:32N 48°26' W 123°26'0 0.0
2017-Feb-21 10:32N 48°26' W 123°26'0 0.0
2017-Feb-20 21:29N 48°26' W 123°26'6 6.1
2017-Feb-20 20:33N 48°23' W 123°18'1312.7
2017-Feb-20 19:33N 48°35' W 123°14'1211.9
2017-Feb-20 18:33N 48°46' W 123°21'5 0.3
2017-Feb-20 00:27N 48°50' W 123°26'9 9.2
2017-Feb-19 23:29N 48°57' W 123°35'1 0.9
2017-Feb-19 22:13N 48°58' W 123°36'3 4.6
2017-Feb-19 21:31N 48°56' W 123°32'7 7.3
2017-Feb-19 20:31N 48°52' W 123°23'6 6.3
2017-Feb-19 19:32N 48°58' W 123°21'1111.0
2017-Feb-19 18:34N 49°08' W 123°25'1111.3
2017-Feb-19 17:34N 49°19' W 123°18'8 7.5
2017-Feb-19 16:31N 49°17' W 123°06'0 0.0
2017-Feb-19 15:31N 49°17' W 123°06'0 0.0
2017-Feb-19 14:33N 49°17' W 123°06'0 0.0
2017-Feb-19 13:33N 49°17' W 123°06'0 0.0
2017-Feb-19 12:33N 49°17' W 123°06'0 0.0
2017-Feb-19 11:33N 49°17' W 123°06'0 0.0
2017-Feb-19 10:33N 49°17' W 123°06'0 0.0
2017-Feb-19 09:33N 49°17' W 123°06'0 0.0
2017-Feb-19 08:33N 49°17' W 123°06'0 0.0
2017-Feb-19 07:31N 49°17' W 123°06'0 0.0
2017-Feb-19 06:31N 49°17' W 123°06'0 0.0
2017-Feb-19 05:31N 49°17' W 123°06'0 0.0
2017-Feb-19 04:31N 49°17' W 123°06'0 0.0
2017-Feb-19 03:31N 49°17' W 123°06'0 0.0
2017-Feb-19 02:33N 49°17' W 123°06'2 1.8
2017-Feb-19 01:33N 49°19' W 123°08'1313.1
2017-Feb-19 00:33N 49°10' W 123°23'1413.1
2017-Feb-18 23:27N 48°55' W 123°20'5 2.4
2017-Feb-18 21:28N 48°51' W 123°22'1010.9
2017-Feb-18 20:33N 48°42' W 123°15'1818.0
2017-Feb-18 19:34N 48°24' W 123°11'1212.1
2017-Feb-18 18:32N 48°21' W 123°29'4 4.3
2017-Feb-18 17:33N 48°25' W 123°27'1 1.4
2017-Feb-18 16:33N 48°26' W 123°26'0 0.0
2017-Feb-17 21:06N 48°26' W 123°26'2 3.1
2017-Feb-17 20:33N 48°24' W 123°27'5 5.4
2017-Feb-17 19:33N 48°20' W 123°21'5 5.1
2017-Feb-17 18:34N 48°24' W 123°26'2 1.7
2017-Feb-17 17:29N 48°26' W 123°26'  
Track history (hours):
 
Tides and Currents Weather Stations Pressure Air Temp Water Temp Dewpoint Dewpoint Depression Visibility Wind Speed Wind Dir Waves Ship Positions

Wolf 59

Last reported at 2017-Feb-24 18:28 UTC. Time now 2017-Feb-26 07:41 UTC.
Position N 48°26' W 123°26'.

Length 33 m; draft 2 m.

Type: Military. MMSI: 316011515.

Date/timePositionNaut miles runAvg speedWind from/ knotsBaromVisibWave heightAir tempDewpointWater temp
2017-Feb-24 18:28N 48°26' W 123°26'0 0.1
2017-Feb-24 17:32N 48°26' W 123°26'0 0.0
2017-Feb-23 20:20N 48°26' W 123°26'1 1.1
2017-Feb-23 19:30N 48°26' W 123°27'0 0.0
2017-Feb-23 18:33N 48°26' W 123°27'1 0.0
2017-Feb-22 14:32N 48°26' W 123°26'0 0.0
2017-Feb-22 09:26N 48°26' W 123°26'0 0.0
2017-Feb-21 21:30N 48°26' W 123°26'0 0.0
2017-Feb-21 20:18N 48°26' W 123°26'0 0.0
2017-Feb-21 19:15N 48°26' W 123°26'0 0.0
2017-Feb-21 18:33N 48°26' W 123°26'0 0.0
2017-Feb-21 17:30N 48°26' W 123°26'0 0.0
2017-Feb-21 15:18N 48°26' W 123°26'0 0.0
2017-Feb-21 14:33N 48°26' W 123°26'0 0.0
2017-Feb-21 13:31N 48°26' W 123°26'0 0.0
2017-Feb-21 11:32N 48°26' W 123°26'0 0.0
2017-Feb-21 10:32N 48°26' W 123°26'0 0.0
2017-Feb-20 21:29N 48°26' W 123°26'6 6.1
2017-Feb-20 20:33N 48°23' W 123°18'1312.7
2017-Feb-20 19:33N 48°35' W 123°14'1211.9
2017-Feb-20 18:33N 48°46' W 123°21'5 0.3
2017-Feb-20 00:27N 48°50' W 123°26'9 9.2
2017-Feb-19 23:29N 48°57' W 123°35'1 0.9
2017-Feb-19 22:13N 48°58' W 123°36'3 4.6
2017-Feb-19 21:31N 48°56' W 123°32'7 7.3
2017-Feb-19 20:31N 48°52' W 123°23'6 6.3
2017-Feb-19 19:32N 48°58' W 123°21'1111.0
2017-Feb-19 18:34N 49°08' W 123°25'1111.3
2017-Feb-19 17:34N 49°19' W 123°18'8 7.5
2017-Feb-19 16:31N 49°17' W 123°06'0 0.0
2017-Feb-19 15:31N 49°17' W 123°06'0 0.0
2017-Feb-19 14:33N 49°17' W 123°06'0 0.0
2017-Feb-19 13:33N 49°17' W 123°06'0 0.0
2017-Feb-19 12:33N 49°17' W 123°06'0 0.0
2017-Feb-19 11:33N 49°17' W 123°06'0 0.0
2017-Feb-19 10:33N 49°17' W 123°06'0 0.0
2017-Feb-19 09:33N 49°17' W 123°06'0 0.0
2017-Feb-19 08:33N 49°17' W 123°06'0 0.0
2017-Feb-19 07:31N 49°17' W 123°06'0 0.0
2017-Feb-19 06:31N 49°17' W 123°06'0 0.0
2017-Feb-19 05:31N 49°17' W 123°06'0 0.0
2017-Feb-19 04:31N 49°17' W 123°06'0 0.0
2017-Feb-19 03:31N 49°17' W 123°06'0 0.0
2017-Feb-19 02:33N 49°17' W 123°06'2 1.8
2017-Feb-19 01:33N 49°19' W 123°08'1313.1
2017-Feb-19 00:33N 49°10' W 123°23'1413.1
2017-Feb-18 23:27N 48°55' W 123°20'5 2.4
2017-Feb-18 21:28N 48°51' W 123°22'1010.9
2017-Feb-18 20:33N 48°42' W 123°15'1818.0
2017-Feb-18 19:34N 48°24' W 123°11'1212.1
2017-Feb-18 18:32N 48°21' W 123°29'4 4.3
2017-Feb-18 17:33N 48°25' W 123°27'1 1.4
2017-Feb-18 16:33N 48°26' W 123°26'0 0.0
2017-Feb-17 21:06N 48°26' W 123°26'2 3.1
2017-Feb-17 20:33N 48°24' W 123°27'5 5.4
2017-Feb-17 19:33N 48°20' W 123°21'5 5.1
2017-Feb-17 18:34N 48°24' W 123°26'2 1.7
2017-Feb-17 17:29N 48°26' W 123°26'  

Dump ship's entire track history